sensor_id;sensor_type;location;lat;lon;timestamp;P1;durP1;ratioP1;P2;durP2;ratioP2
63653;SDS011;49809;47.418;19.080;2022-10-16T00:03:57;4.80;;;3.20;;
63653;SDS011;49809;47.418;19.080;2022-10-16T00:07:27;6.05;;;3.67;;
63653;SDS011;49809;47.418;19.080;2022-10-16T00:11:37;3.87;;;3.08;;
63653;SDS011;49809;47.418;19.080;2022-10-16T00:15:42;4.62;;;3.10;;
63653;SDS011;49809;47.418;19.080;2022-10-16T00:19:33;8.75;;;3.37;;
63653;SDS011;49809;47.418;19.080;2022-10-16T00:23:42;5.75;;;3.85;;
63653;SDS011;49809;47.418;19.080;2022-10-16T00:27:21;9.98;;;3.75;;
63653;SDS011;49809;47.418;19.080;2022-10-16T00:31:12;4.20;;;3.10;;
63653;SDS011;49809;47.418;19.080;2022-10-16T00:34:48;4.40;;;2.83;;
63653;SDS011;49809;47.418;19.080;2022-10-16T00:38:58;5.72;;;3.22;;
63653;SDS011;49809;47.418;19.080;2022-10-16T00:42:44;7.00;;;3.47;;
63653;SDS011;49809;47.418;19.080;2022-10-16T00:46:20;5.93;;;3.12;;
63653;SDS011;49809;47.418;19.080;2022-10-16T00:58:35;4.43;;;3.03;;
63653;SDS011;49809;47.418;19.080;2022-10-16T01:02:31;4.75;;;3.17;;
63653;SDS011;49809;47.418;19.080;2022-10-16T01:10:27;4.28;;;2.67;;
63653;SDS011;49809;47.418;19.080;2022-10-16T01:14:47;5.75;;;3.00;;
63653;SDS011;49809;47.418;19.080;2022-10-16T01:23:27;6.00;;;3.08;;
63653;SDS011;49809;47.418;19.080;2022-10-16T01:27:34;4.25;;;3.00;;
63653;SDS011;49809;47.418;19.080;2022-10-16T01:35:35;4.90;;;3.17;;
63653;SDS011;49809;47.418;19.080;2022-10-16T01:51:59;9.40;;;3.85;;
63653;SDS011;49809;47.418;19.080;2022-10-16T01:56:06;6.35;;;3.10;;
63653;SDS011;49809;47.418;19.080;2022-10-16T01:59:54;4.90;;;3.05;;
63653;SDS011;49809;47.418;19.080;2022-10-16T02:03:40;6.85;;;2.90;;
63653;SDS011;49809;47.418;19.080;2022-10-16T02:15:32;5.60;;;3.25;;
63653;SDS011;49809;47.418;19.080;2022-10-16T02:19:43;3.72;;;3.00;;
63653;SDS011;49809;47.418;19.080;2022-10-16T02:35:55;4.25;;;2.87;;
63653;SDS011;49809;47.418;19.080;2022-10-16T02:40:03;5.62;;;3.15;;
63653;SDS011;49809;47.418;19.080;2022-10-16T02:43:28;5.87;;;3.30;;
63653;SDS011;49809;47.418;19.080;2022-10-16T02:47:37;7.10;;;4.10;;
63653;SDS011;49809;47.418;19.080;2022-10-16T02:51:32;4.87;;;2.90;;
63653;SDS011;49809;47.418;19.080;2022-10-16T03:04:06;6.97;;;3.45;;
63653;SDS011;49809;47.418;19.080;2022-10-16T03:16:03;6.82;;;4.07;;
63653;SDS011;49809;47.418;19.080;2022-10-16T03:19:40;4.03;;;3.00;;
63653;SDS011;49809;47.418;19.080;2022-10-16T03:23:24;7.68;;;3.83;;
63653;SDS011;49809;47.418;19.080;2022-10-16T03:27:19;5.22;;;3.22;;
63653;SDS011;49809;47.418;19.080;2022-10-16T03:30:48;6.78;;;3.65;;
63653;SDS011;49809;47.418;19.080;2022-10-16T03:34:51;5.93;;;3.53;;
63653;SDS011;49809;47.418;19.080;2022-10-16T03:38:45;8.60;;;3.03;;
63653;SDS011;49809;47.418;19.080;2022-10-16T03:42:22;6.87;;;3.87;;
63653;SDS011;49809;47.418;19.080;2022-10-16T03:50:07;5.05;;;3.35;;
63653;SDS011;49809;47.418;19.080;2022-10-16T03:57:45;5.78;;;3.70;;
63653;SDS011;49809;47.418;19.080;2022-10-16T04:05:55;7.20;;;4.10;;
63653;SDS011;49809;47.418;19.080;2022-10-16T04:10:12;2.87;;;2.40;;
63653;SDS011;49809;47.418;19.080;2022-10-16T04:13:42;5.20;;;3.03;;
63653;SDS011;49809;47.418;19.080;2022-10-16T04:17:21;5.25;;;3.58;;
63653;SDS011;49809;47.418;19.080;2022-10-16T04:29:20;12.13;;;3.85;;
63653;SDS011;49809;47.418;19.080;2022-10-16T04:33:20;7.65;;;3.45;;
63653;SDS011;49809;47.418;19.080;2022-10-16T04:37:25;7.80;;;3.62;;
63653;SDS011;49809;47.418;19.080;2022-10-16T04:45:25;6.37;;;3.72;;
63653;SDS011;49809;47.418;19.080;2022-10-16T04:49:11;6.05;;;3.72;;
63653;SDS011;49809;47.418;19.080;2022-10-16T04:57:08;6.28;;;3.45;;
63653;SDS011;49809;47.418;19.080;2022-10-16T05:00:46;6.15;;;3.37;;
63653;SDS011;49809;47.418;19.080;2022-10-16T05:04:16;5.50;;;3.90;;
63653;SDS011;49809;47.418;19.080;2022-10-16T05:07:49;6.20;;;4.10;;
63653;SDS011;49809;47.418;19.080;2022-10-16T05:16:10;4.68;;;3.15;;
63653;SDS011;49809;47.418;19.080;2022-10-16T05:23:23;8.95;;;4.15;;
63653;SDS011;49809;47.418;19.080;2022-10-16T05:39:18;8.75;;;5.00;;
63653;SDS011;49809;47.418;19.080;2022-10-16T05:51:30;6.28;;;4.15;;
63653;SDS011;49809;47.418;19.080;2022-10-16T05:55:36;5.80;;;3.30;;
63653;SDS011;49809;47.418;19.080;2022-10-16T05:59:08;6.87;;;3.62;;
63653;SDS011;49809;47.418;19.080;2022-10-16T06:15:29;8.20;;;3.97;;
63653;SDS011;49809;47.418;19.080;2022-10-16T07:00:19;7.53;;;4.07;;
63653;SDS011;49809;47.418;19.080;2022-10-16T07:03:26;7.20;;;4.15;;
63653;SDS011;49809;47.418;19.080;2022-10-16T07:14:20;7.40;;;3.15;;
63653;SDS011;49809;47.418;19.080;2022-10-16T07:21:50;6.47;;;3.58;;
63653;SDS011;49809;47.418;19.080;2022-10-16T07:25:53;6.80;;;4.03;;
63653;SDS011;49809;47.418;19.080;2022-10-16T07:29:31;5.97;;;3.70;;
63653;SDS011;49809;47.418;19.080;2022-10-16T07:32:57;6.25;;;3.60;;
63653;SDS011;49809;47.418;19.080;2022-10-16T07:36:41;5.72;;;3.67;;
63653;SDS011;49809;47.418;19.080;2022-10-16T07:40:09;5.70;;;4.05;;
63653;SDS011;49809;47.418;19.080;2022-10-16T07:43:32;7.32;;;3.90;;
63653;SDS011;49809;47.418;19.080;2022-10-16T07:47:06;5.10;;;3.70;;
63653;SDS011;49809;47.418;19.080;2022-10-16T07:51:08;6.78;;;3.80;;
63653;SDS011;49809;47.418;19.080;2022-10-16T07:55:00;7.15;;;3.90;;
63653;SDS011;49809;47.418;19.080;2022-10-16T07:58:03;10.65;;;4.53;;
63653;SDS011;49809;47.418;19.080;2022-10-16T08:01:31;7.07;;;4.22;;
63653;SDS011;49809;47.418;19.080;2022-10-16T08:09:22;6.07;;;4.15;;
63653;SDS011;49809;47.418;19.080;2022-10-16T08:13:02;5.60;;;3.90;;
63653;SDS011;49809;47.418;19.080;2022-10-16T08:16:48;7.47;;;4.78;;
63653;SDS011;49809;47.418;19.080;2022-10-16T08:20:32;5.97;;;3.97;;
63653;SDS011;49809;47.418;19.080;2022-10-16T08:24:16;6.22;;;4.00;;
63653;SDS011;49809;47.418;19.080;2022-10-16T08:28:02;6.68;;;4.00;;
63653;SDS011;49809;47.418;19.080;2022-10-16T08:31:14;8.10;;;4.10;;
63653;SDS011;49809;47.418;19.080;2022-10-16T08:34:44;10.82;;;4.57;;
63653;SDS011;49809;47.418;19.080;2022-10-16T08:38:32;7.90;;;4.00;;
63653;SDS011;49809;47.418;19.080;2022-10-16T08:49:30;5.25;;;3.42;;
63653;SDS011;49809;47.418;19.080;2022-10-16T08:56:43;6.00;;;3.97;;
63653;SDS011;49809;47.418;19.080;2022-10-16T09:00:19;6.90;;;4.28;;
63653;SDS011;49809;47.418;19.080;2022-10-16T09:11:56;7.12;;;3.92;;
63653;SDS011;49809;47.418;19.080;2022-10-16T09:27:32;7.68;;;4.20;;
63653;SDS011;49809;47.418;19.080;2022-10-16T09:31:19;7.50;;;4.07;;
63653;SDS011;49809;47.418;19.080;2022-10-16T09:41:53;6.40;;;3.90;;
63653;SDS011;49809;47.418;19.080;2022-10-16T09:45:21;5.65;;;3.67;;
63653;SDS011;49809;47.418;19.080;2022-10-16T09:52:23;5.55;;;4.15;;
63653;SDS011;49809;47.418;19.080;2022-10-16T09:55:57;5.75;;;3.83;;
63653;SDS011;49809;47.418;19.080;2022-10-16T09:59:45;6.05;;;3.60;;
63653;SDS011;49809;47.418;19.080;2022-10-16T10:03:38;5.80;;;3.95;;
63653;SDS011;49809;47.418;19.080;2022-10-16T10:07:03;11.18;;;3.65;;
63653;SDS011;49809;47.418;19.080;2022-10-16T10:18:44;4.22;;;3.20;;
63653;SDS011;49809;47.418;19.080;2022-10-16T10:22:22;6.07;;;3.33;;
63653;SDS011;49809;47.418;19.080;2022-10-16T10:30:15;8.93;;;4.30;;
63653;SDS011;49809;47.418;19.080;2022-10-16T10:33:47;20.95;;;9.65;;
63653;SDS011;49809;47.418;19.080;2022-10-16T10:38:06;8.63;;;3.50;;
63653;SDS011;49809;47.418;19.080;2022-10-16T10:41:38;6.37;;;3.00;;
63653;SDS011;49809;47.418;19.080;2022-10-16T11:05:02;7.15;;;3.15;;
63653;SDS011;49809;47.418;19.080;2022-10-16T11:12:45;4.50;;;2.87;;
63653;SDS011;49809;47.418;19.080;2022-10-16T11:16:18;3.35;;;2.70;;
63653;SDS011;49809;47.418;19.080;2022-10-16T11:24:06;3.92;;;2.67;;
63653;SDS011;49809;47.418;19.080;2022-10-16T11:27:52;3.85;;;2.80;;
63653;SDS011;49809;47.418;19.080;2022-10-16T11:31:40;3.80;;;2.65;;
63653;SDS011;49809;47.418;19.080;2022-10-16T11:35:28;4.18;;;3.12;;
63653;SDS011;49809;47.418;19.080;2022-10-16T11:39:32;3.97;;;2.90;;
63653;SDS011;49809;47.418;19.080;2022-10-16T11:43:23;6.03;;;2.80;;
63653;SDS011;49809;47.418;19.080;2022-10-16T11:50:57;5.35;;;3.22;;
63653;SDS011;49809;47.418;19.080;2022-10-16T11:54:46;3.35;;;2.72;;
63653;SDS011;49809;47.418;19.080;2022-10-16T11:58:39;3.22;;;2.45;;
63653;SDS011;49809;47.418;19.080;2022-10-16T12:02:29;3.80;;;2.60;;
63653;SDS011;49809;47.418;19.080;2022-10-16T12:10:23;3.67;;;2.65;;
63653;SDS011;49809;47.418;19.080;2022-10-16T12:13:48;3.78;;;2.47;;
63653;SDS011;49809;47.418;19.080;2022-10-16T12:17:23;3.42;;;2.58;;
63653;SDS011;49809;47.418;19.080;2022-10-16T12:20:36;5.45;;;2.67;;
63653;SDS011;49809;47.418;19.080;2022-10-16T12:24:00;3.78;;;2.45;;
63653;SDS011;49809;47.418;19.080;2022-10-16T12:30:33;6.15;;;2.50;;
63653;SDS011;49809;47.418;19.080;2022-10-16T12:33:58;4.80;;;2.67;;
63653;SDS011;49809;47.418;19.080;2022-10-16T12:37:09;4.62;;;2.25;;
63653;SDS011;49809;47.418;19.080;2022-10-16T12:40:26;4.30;;;2.53;;
63653;SDS011;49809;47.418;19.080;2022-10-16T12:46:35;3.92;;;2.50;;
63653;SDS011;49809;47.418;19.080;2022-10-16T12:49:47;4.20;;;2.65;;
63653;SDS011;49809;47.418;19.080;2022-10-16T12:52:57;3.78;;;2.47;;
63653;SDS011;49809;47.418;19.080;2022-10-16T12:56:27;5.53;;;2.30;;
63653;SDS011;49809;47.418;19.080;2022-10-16T13:05:02;3.97;;;2.45;;
63653;SDS011;49809;47.418;19.080;2022-10-16T13:08:09;5.28;;;2.40;;
63653;SDS011;49809;47.418;19.080;2022-10-16T13:11:35;3.55;;;2.33;;
63653;SDS011;49809;47.418;19.080;2022-10-16T13:15:19;2.97;;;2.40;;
63653;SDS011;49809;47.418;19.080;2022-10-16T13:22:47;3.12;;;2.30;;
63653;SDS011;49809;47.418;19.080;2022-10-16T13:30:15;3.22;;;2.25;;
63653;SDS011;49809;47.418;19.080;2022-10-16T13:34:10;4.40;;;3.00;;
63653;SDS011;49809;47.418;19.080;2022-10-16T13:41:31;4.62;;;2.28;;
63653;SDS011;49809;47.418;19.080;2022-10-16T13:44:58;4.82;;;2.62;;
63653;SDS011;49809;47.418;19.080;2022-10-16T13:48:38;2.90;;;2.35;;
63653;SDS011;49809;47.418;19.080;2022-10-16T13:52:41;6.57;;;2.42;;
63653;SDS011;49809;47.418;19.080;2022-10-16T13:56:10;4.62;;;2.35;;
63653;SDS011;49809;47.418;19.080;2022-10-16T13:59:39;5.30;;;2.08;;
63653;SDS011;49809;47.418;19.080;2022-10-16T14:03:07;2.90;;;2.17;;
63653;SDS011;49809;47.418;19.080;2022-10-16T14:06:42;3.90;;;2.47;;
63653;SDS011;49809;47.418;19.080;2022-10-16T14:10:41;4.35;;;2.62;;
63653;SDS011;49809;47.418;19.080;2022-10-16T14:13:58;4.15;;;2.30;;
63653;SDS011;49809;47.418;19.080;2022-10-16T14:17:22;2.80;;;2.00;;
63653;SDS011;49809;47.418;19.080;2022-10-16T14:20:29;4.22;;;2.25;;
63653;SDS011;49809;47.418;19.080;2022-10-16T14:23:54;4.07;;;2.60;;
63653;SDS011;49809;47.418;19.080;2022-10-16T14:30:57;5.47;;;2.47;;
63653;SDS011;49809;47.418;19.080;2022-10-16T14:34:24;3.03;;;2.33;;
63653;SDS011;49809;47.418;19.080;2022-10-16T14:38:16;4.40;;;2.50;;
63653;SDS011;49809;47.418;19.080;2022-10-16T14:41:48;3.83;;;2.35;;
63653;SDS011;49809;47.418;19.080;2022-10-16T14:45:40;5.03;;;2.55;;
63653;SDS011;49809;47.418;19.080;2022-10-16T14:52:17;4.90;;;2.75;;
63653;SDS011;49809;47.418;19.080;2022-10-16T14:55:23;4.43;;;2.55;;
63653;SDS011;49809;47.418;19.080;2022-10-16T14:58:50;4.15;;;2.65;;
63653;SDS011;49809;47.418;19.080;2022-10-16T15:02:35;4.00;;;2.30;;
63653;SDS011;49809;47.418;19.080;2022-10-16T15:06:02;5.32;;;2.65;;
63653;SDS011;49809;47.418;19.080;2022-10-16T15:09:06;3.83;;;2.35;;
63653;SDS011;49809;47.418;19.080;2022-10-16T15:12:51;5.65;;;3.12;;
63653;SDS011;49809;47.418;19.080;2022-10-16T15:16:43;6.25;;;2.85;;
63653;SDS011;49809;47.418;19.080;2022-10-16T15:19:52;4.95;;;2.87;;
63653;SDS011;49809;47.418;19.080;2022-10-16T15:23:02;4.57;;;2.58;;
63653;SDS011;49809;47.418;19.080;2022-10-16T15:26:27;5.72;;;2.70;;
63653;SDS011;49809;47.418;19.080;2022-10-16T15:29:55;8.30;;;2.70;;
63653;SDS011;49809;47.418;19.080;2022-10-16T15:33:25;5.07;;;3.15;;
63653;SDS011;49809;47.418;19.080;2022-10-16T15:41:13;4.72;;;3.05;;
63653;SDS011;49809;47.418;19.080;2022-10-16T15:44:39;5.55;;;3.33;;
63653;SDS011;49809;47.418;19.080;2022-10-16T15:48:25;4.70;;;3.17;;
63653;SDS011;49809;47.418;19.080;2022-10-16T15:52:07;6.12;;;3.25;;
63653;SDS011;49809;47.418;19.080;2022-10-16T15:55:33;6.50;;;3.65;;
63653;SDS011;49809;47.418;19.080;2022-10-16T15:59:37;6.80;;;3.97;;
63653;SDS011;49809;47.418;19.080;2022-10-16T16:02:58;5.72;;;3.87;;
63653;SDS011;49809;47.418;19.080;2022-10-16T16:06:36;8.75;;;4.90;;
63653;SDS011;49809;47.418;19.080;2022-10-16T16:10:11;34.30;;;13.27;;
63653;SDS011;49809;47.418;19.080;2022-10-16T16:13:36;26.73;;;10.90;;
63653;SDS011;49809;47.418;19.080;2022-10-16T16:17:07;33.55;;;12.70;;
63653;SDS011;49809;47.418;19.080;2022-10-16T16:20:40;20.85;;;9.07;;
63653;SDS011;49809;47.418;19.080;2022-10-16T16:24:14;17.77;;;9.02;;
63653;SDS011;49809;47.418;19.080;2022-10-16T16:27:52;15.07;;;7.90;;
63653;SDS011;49809;47.418;19.080;2022-10-16T16:31:17;16.87;;;7.87;;
63653;SDS011;49809;47.418;19.080;2022-10-16T16:35:06;19.65;;;7.20;;
63653;SDS011;49809;47.418;19.080;2022-10-16T16:38:34;17.40;;;7.75;;
63653;SDS011;49809;47.418;19.080;2022-10-16T16:42:10;17.25;;;7.28;;
63653;SDS011;49809;47.418;19.080;2022-10-16T16:46:12;20.60;;;7.78;;
63653;SDS011;49809;47.418;19.080;2022-10-16T16:49:32;14.70;;;7.57;;
63653;SDS011;49809;47.418;19.080;2022-10-16T16:52:50;16.17;;;7.43;;
63653;SDS011;49809;47.418;19.080;2022-10-16T16:56:28;14.85;;;7.28;;
63653;SDS011;49809;47.418;19.080;2022-10-16T17:00:31;15.85;;;7.45;;
63653;SDS011;49809;47.418;19.080;2022-10-16T17:04:09;16.35;;;7.85;;
63653;SDS011;49809;47.418;19.080;2022-10-16T17:07:55;17.25;;;8.32;;
63653;SDS011;49809;47.418;19.080;2022-10-16T17:11:26;14.93;;;7.97;;
63653;SDS011;49809;47.418;19.080;2022-10-16T17:14:51;17.23;;;8.32;;
63653;SDS011;49809;47.418;19.080;2022-10-16T17:18:32;14.23;;;8.07;;
63653;SDS011;49809;47.418;19.080;2022-10-16T17:22:18;18.15;;;7.95;;
63653;SDS011;49809;47.418;19.080;2022-10-16T17:26:07;17.35;;;8.68;;
63653;SDS011;49809;47.418;19.080;2022-10-16T17:29:58;14.25;;;8.23;;
63653;SDS011;49809;47.418;19.080;2022-10-16T17:33:41;12.48;;;7.60;;
63653;SDS011;49809;47.418;19.080;2022-10-16T17:37:05;14.93;;;7.50;;
63653;SDS011;49809;47.418;19.080;2022-10-16T17:40:30;15.50;;;8.23;;
63653;SDS011;49809;47.418;19.080;2022-10-16T17:44:17;16.23;;;8.10;;
63653;SDS011;49809;47.418;19.080;2022-10-16T17:47:53;18.10;;;9.05;;
63653;SDS011;49809;47.418;19.080;2022-10-16T17:51:16;14.90;;;8.80;;
63653;SDS011;49809;47.418;19.080;2022-10-16T17:54:36;18.33;;;9.15;;
63653;SDS011;49809;47.418;19.080;2022-10-16T17:57:58;16.45;;;9.48;;
63653;SDS011;49809;47.418;19.080;2022-10-16T18:01:39;15.43;;;9.85;;
63653;SDS011;49809;47.418;19.080;2022-10-16T18:05:12;18.42;;;10.63;;
63653;SDS011;49809;47.418;19.080;2022-10-16T18:08:54;19.65;;;9.52;;
63653;SDS011;49809;47.418;19.080;2022-10-16T18:12:20;27.65;;;10.35;;
63653;SDS011;49809;47.418;19.080;2022-10-16T18:16:00;21.20;;;10.90;;
63653;SDS011;49809;47.418;19.080;2022-10-16T18:19:23;19.67;;;10.00;;
63653;SDS011;49809;47.418;19.080;2022-10-16T19:55:08;14.20;;;8.70;;
63653;SDS011;49809;47.418;19.080;2022-10-16T20:03:02;18.00;;;9.73;;
63653;SDS011;49809;47.418;19.080;2022-10-16T23:47:06;9.02;;;5.65;;
